createdAt,value
2019-05-12T00:01:48.618Z,15.35
2019-05-12T00:04:18.919Z,15.22
2019-05-12T00:06:48.871Z,15.07
2019-05-12T00:09:18.912Z,15.26
2019-05-12T00:11:48.773Z,15.09
2019-05-12T00:14:18.578Z,15.22
2019-05-12T00:16:49.092Z,15.27
2019-05-12T00:19:19.001Z,15.39
2019-05-12T00:21:48.725Z,15.15
2019-05-12T00:24:18.820Z,15.30
2019-05-12T00:26:50.249Z,15.38
2019-05-12T00:29:19.999Z,15.45
2019-05-12T00:31:49.774Z,15.50
2019-05-12T00:34:19.491Z,15.49
2019-05-12T00:36:49.247Z,15.46
2019-05-12T00:39:19.269Z,15.50
2019-05-12T00:41:49.054Z,15.53
2019-05-12T00:44:18.877Z,15.51
2019-05-12T00:46:48.885Z,15.54
2019-05-12T00:49:18.836Z,15.48
2019-05-12T00:51:48.679Z,15.51
2019-05-12T00:54:18.424Z,15.55
2019-05-12T00:56:48.386Z,15.56
2019-05-12T00:59:19.025Z,15.51
2019-05-12T01:01:48.876Z,15.51
2019-05-12T01:04:18.698Z,15.53
2019-05-12T01:06:51.663Z,15.44
2019-05-12T01:09:19.962Z,15.44
2019-05-12T01:11:49.704Z,15.44
2019-05-12T01:14:19.436Z,15.47
2019-05-12T01:16:49.141Z,15.39
2019-05-12T01:19:18.908Z,15.45
2019-05-12T01:21:48.632Z,15.45
2019-05-12T01:24:18.834Z,15.42
2019-05-12T01:26:48.669Z,15.38
2019-05-12T01:29:18.768Z,15.44
2019-05-12T01:31:58.587Z,15.46
2019-05-12T01:34:28.373Z,15.40
2019-05-12T01:37:18.410Z,15.39
2019-05-12T01:39:49.110Z,15.37
2019-05-12T01:42:25.141Z,15.42
2019-05-12T01:44:54.845Z,15.36
2019-05-12T01:47:24.572Z,15.39
2019-05-12T01:49:54.271Z,15.40
2019-05-12T01:52:23.997Z,15.37
2019-05-12T01:54:53.737Z,15.36
2019-05-12T01:57:23.410Z,15.39
2019-05-12T01:59:53.176Z,15.33
2019-05-12T02:02:23.304Z,15.39
2019-05-12T02:05:04.795Z,15.32
2019-05-12T02:07:38.377Z,15.31
2019-05-12T02:10:09.268Z,15.32
2019-05-12T02:12:39.204Z,15.25
2019-05-12T02:15:09.150Z,15.29
2019-05-12T02:17:39.292Z,15.28
2019-05-12T02:20:10.223Z,15.23
2019-05-12T02:22:39.906Z,15.28
2019-05-12T02:25:09.865Z,15.16
2019-05-12T02:27:39.659Z,15.26
2019-05-12T02:30:10.431Z,15.25
2019-05-12T02:32:48.589Z,15.21
2019-05-12T02:35:11.558Z,15.19
2019-05-12T02:37:45.011Z,15.26
2019-05-12T02:40:15.066Z,15.20
2019-05-12T02:42:46.269Z,15.21
2019-05-12T02:45:16.050Z,15.29
2019-05-12T02:47:46.023Z,15.27
2019-05-12T02:50:19.776Z,15.25
2019-05-12T02:52:49.551Z,15.18
2019-05-12T02:55:19.258Z,15.25
2019-05-12T02:57:49.539Z,15.21
2019-05-12T03:00:19.306Z,15.15
2019-05-12T03:02:54.593Z,15.15
2019-05-12T03:05:24.801Z,15.17
2019-05-12T03:07:55.369Z,15.19
2019-05-12T03:10:25.447Z,15.13
2019-05-12T03:12:55.158Z,15.21
2019-05-12T03:15:25.254Z,15.20
2019-05-12T03:17:54.970Z,15.17
2019-05-12T03:20:24.766Z,15.17
2019-05-12T03:22:55.415Z,15.10
2019-05-12T03:25:29.920Z,15.06
2019-05-12T03:27:57.206Z,15.11
2019-05-12T03:30:28.908Z,15.13
2019-05-12T03:32:58.748Z,15.12
2019-05-12T03:35:35.386Z,15.08
2019-05-12T03:38:00.117Z,15.08
2019-05-12T03:40:29.787Z,15.04
2019-05-12T03:42:59.662Z,15.09
2019-05-12T03:45:29.525Z,15.11
2019-05-12T03:47:59.289Z,15.02
2019-05-12T03:50:29.053Z,15.01
2019-05-12T03:52:58.760Z,15.01
2019-05-12T03:55:35.973Z,14.98
2019-05-12T03:57:59.959Z,14.96
2019-05-12T04:00:29.694Z,15.02
2019-05-12T04:02:59.474Z,15.00
2019-05-12T04:05:29.142Z,15.01
2019-05-12T04:07:58.840Z,15.02
2019-05-12T04:10:28.651Z,15.04
2019-05-12T04:12:58.430Z,15.03
2019-05-12T04:15:28.156Z,15.02
2019-05-12T04:17:57.810Z,15.00
2019-05-12T04:20:27.520Z,14.98
2019-05-12T04:22:57.105Z,15.06
2019-05-12T04:25:45.761Z,15.04
2019-05-12T04:27:58.462Z,14.97
2019-05-12T04:30:28.197Z,14.96
2019-05-12T04:32:57.957Z,14.95
2019-05-12T04:35:27.746Z,14.96
2019-05-12T04:37:57.459Z,14.94
2019-05-12T04:40:27.122Z,14.94
2019-05-12T04:42:56.850Z,14.88
2019-05-12T04:45:26.551Z,14.87
2019-05-12T04:47:56.296Z,14.97
2019-05-12T04:50:26.005Z,14.90
2019-05-12T04:52:55.769Z,14.91
2019-05-12T04:55:25.892Z,14.89
2019-05-12T04:57:55.619Z,14.95
2019-05-12T05:00:25.962Z,14.95
2019-05-12T05:02:55.686Z,14.85
2019-05-12T05:05:25.385Z,14.84
2019-05-12T05:07:55.412Z,14.89
2019-05-12T05:10:25.231Z,14.84
2019-05-12T05:12:54.962Z,14.79
2019-05-12T05:15:25.162Z,14.85
2019-05-12T05:17:54.929Z,14.78
2019-05-12T05:20:24.622Z,14.86
2019-05-12T05:22:54.329Z,14.85
2019-05-12T05:25:24.010Z,14.82
2019-05-12T05:27:53.647Z,14.83
2019-05-12T05:30:24.304Z,14.77
2019-05-12T05:32:54.069Z,14.80
2019-05-12T05:35:23.973Z,14.76
2019-05-12T05:37:54.066Z,14.82
2019-05-12T05:40:28.394Z,14.78
2019-05-12T05:42:55.113Z,14.78
2019-05-12T05:45:26.467Z,14.61
2019-05-12T05:47:59.575Z,14.71
2019-05-12T05:50:29.650Z,14.64
2019-05-12T05:52:59.320Z,14.67
2019-05-12T05:55:29.093Z,14.65
2019-05-12T05:57:59.827Z,14.69
2019-05-12T06:00:30.135Z,14.66
2019-05-12T06:02:59.950Z,14.60
2019-05-12T06:05:31.037Z,14.70
2019-05-12T06:08:00.820Z,14.69
2019-05-12T06:10:36.125Z,14.63
2019-05-12T06:13:04.073Z,14.66
2019-05-12T06:15:35.902Z,14.62
2019-05-12T06:18:04.907Z,14.69
2019-05-12T06:20:37.920Z,14.57
2019-05-12T06:23:05.982Z,14.38
2019-05-12T06:25:46.313Z,14.50
2019-05-12T06:28:08.990Z,14.54
2019-05-12T06:30:44.240Z,14.41
2019-05-12T06:33:10.051Z,14.50
2019-05-12T06:35:42.299Z,14.58
2019-05-12T06:38:13.424Z,14.53
2019-05-12T06:40:45.303Z,14.40
2019-05-12T06:43:14.385Z,14.41
2019-05-12T06:45:45.755Z,14.13
2019-05-12T06:48:19.481Z,14.11
2019-05-12T06:50:47.124Z,14.21
2019-05-12T06:53:20.059Z,14.25
2019-05-12T06:55:48.304Z,14.37
2019-05-12T06:58:25.972Z,14.49
2019-05-12T07:00:49.584Z,14.37
2019-05-12T07:03:24.773Z,14.36
2019-05-12T07:05:52.893Z,14.40
2019-05-12T07:08:27.505Z,14.44
2019-05-12T07:11:01.893Z,14.57
2019-05-12T07:13:29.331Z,14.51
2019-05-12T07:15:58.074Z,14.52
2019-05-12T07:18:32.454Z,14.52
2019-05-12T07:21:00.348Z,14.48
2019-05-12T07:23:30.373Z,14.50
2019-05-12T07:26:04.826Z,14.52
2019-05-12T07:28:36.268Z,14.61
2019-05-12T07:31:04.259Z,14.59
2019-05-12T07:33:41.622Z,14.60
2019-05-12T07:36:06.484Z,14.69
2019-05-12T07:38:37.835Z,14.67
2019-05-12T07:41:10.640Z,14.67
2019-05-12T07:43:39.673Z,14.69
2019-05-12T07:46:09.236Z,14.76
2019-05-12T07:48:40.395Z,14.77
2019-05-12T07:51:09.864Z,14.81
2019-05-12T07:53:39.352Z,14.77
2019-05-12T07:56:08.917Z,14.84
2019-05-12T07:58:40.914Z,14.85
2019-05-12T08:01:09.679Z,14.84
2019-05-12T08:03:39.149Z,14.89
2019-05-12T08:06:08.617Z,14.85
2019-05-12T08:08:44.277Z,14.87
2019-05-12T08:11:09.312Z,14.88
2019-05-12T08:13:40.925Z,14.87
2019-05-12T08:16:09.954Z,14.92
2019-05-12T08:18:41.162Z,14.95
2019-05-12T08:21:10.660Z,14.97
2019-05-12T08:23:40.143Z,14.94
2019-05-12T08:26:25.832Z,14.93
2019-05-12T08:28:55.327Z,14.93
2019-05-12T08:31:32.075Z,14.93
2019-05-12T08:33:56.318Z,14.96
2019-05-12T08:36:25.798Z,14.92
2019-05-12T08:38:55.383Z,14.85
2019-05-12T08:41:24.835Z,14.87
2019-05-12T08:43:58.183Z,14.73
2019-05-12T08:46:25.622Z,14.74
2019-05-12T08:48:57.935Z,14.81
2019-05-12T08:51:26.411Z,14.80
2019-05-12T08:54:02.429Z,14.83
2019-05-12T08:56:27.489Z,14.85
2019-05-12T08:58:56.962Z,14.86
2019-05-12T09:01:30.600Z,14.90
2019-05-12T09:04:00.406Z,14.86
2019-05-12T09:06:29.010Z,14.94
2019-05-12T09:08:58.851Z,14.87
2019-05-12T09:11:28.402Z,14.88
2019-05-12T09:14:00.658Z,14.92
2019-05-12T09:16:29.104Z,14.91
2019-05-12T09:18:58.654Z,14.97
2019-05-12T09:21:31.443Z,14.94
2019-05-12T09:23:59.340Z,15.00
2019-05-12T09:26:28.909Z,15.07
2019-05-12T09:28:58.676Z,15.12
2019-05-12T09:31:29.611Z,15.07
2019-05-12T09:34:05.469Z,15.11
2019-05-12T09:36:30.557Z,15.17
2019-05-12T09:39:01.911Z,15.16
2019-05-12T09:41:35.935Z,15.22
2019-05-12T09:44:04.421Z,15.27
2019-05-12T09:46:37.483Z,15.29
2019-05-12T09:49:04.862Z,15.28
2019-05-12T09:51:41.436Z,15.28
2019-05-12T09:54:05.595Z,15.23
2019-05-12T09:56:35.068Z,15.26
2019-05-12T09:59:17.238Z,15.25
2019-05-12T10:01:39.458Z,15.29
2019-05-12T10:04:10.406Z,15.28
2019-05-12T10:06:39.736Z,15.33
2019-05-12T10:09:17.614Z,15.32
2019-05-12T10:11:40.478Z,15.36
2019-05-12T10:14:10.890Z,15.32
2019-05-12T10:16:45.637Z,15.37
2019-05-12T10:19:14.248Z,15.33
2019-05-12T10:21:43.988Z,15.33
2019-05-12T10:24:13.567Z,15.36
2019-05-12T10:26:48.902Z,15.32
2019-05-12T10:29:20.388Z,15.33
2019-05-12T10:31:45.387Z,15.39
2019-05-12T10:34:20.845Z,15.40
2019-05-12T10:36:53.494Z,15.37
2019-05-12T10:39:24.310Z,15.40
2019-05-12T10:41:54.525Z,15.39
2019-05-12T10:44:24.316Z,15.41
2019-05-12T10:46:56.430Z,15.36
2019-05-12T10:49:25.922Z,15.36
2019-05-12T10:51:55.391Z,15.36
2019-05-12T10:54:24.891Z,15.38
2019-05-12T10:56:54.838Z,15.37
2019-05-12T10:59:32.697Z,15.37
2019-05-12T11:01:55.484Z,15.32
2019-05-12T11:04:36.003Z,15.40
2019-05-12T11:06:56.305Z,15.37
2019-05-12T11:09:29.350Z,15.43
2019-05-12T11:11:57.095Z,15.47
2019-05-12T11:14:30.418Z,15.45
2019-05-12T11:17:02.021Z,15.42
2019-05-12T11:19:30.446Z,15.38
2019-05-12T11:22:00.427Z,15.42
2019-05-12T11:24:29.917Z,15.41
2019-05-12T11:26:59.476Z,15.44
2019-05-12T11:29:41.704Z,15.46
2019-05-12T11:32:00.162Z,15.46
2019-05-12T11:34:29.816Z,15.43
2019-05-12T11:36:59.380Z,15.42
2019-05-12T11:39:30.621Z,15.41
2019-05-12T11:42:03.745Z,15.42
2019-05-12T11:44:33.788Z,15.41
2019-05-12T11:47:03.832Z,15.45
2019-05-12T11:49:33.667Z,15.43
2019-05-12T11:52:07.361Z,15.45
2019-05-12T11:54:34.306Z,15.48
2019-05-12T11:57:03.864Z,15.45
2019-05-12T11:59:34.127Z,15.49
2019-05-12T12:02:03.781Z,15.50
2019-05-12T12:04:46.115Z,15.50
2019-05-12T12:07:16.274Z,15.45
2019-05-12T12:09:49.415Z,15.47
2019-05-12T12:12:16.995Z,15.46
2019-05-12T12:14:50.342Z,15.46
2019-05-12T12:17:25.122Z,15.46
2019-05-12T12:19:49.206Z,15.45
2019-05-12T12:22:20.330Z,15.45
2019-05-12T12:24:49.915Z,15.45
2019-05-12T12:27:19.400Z,15.46
2019-05-12T12:29:48.870Z,15.48
2019-05-12T12:32:20.352Z,15.47
2019-05-12T12:34:49.484Z,15.47
2019-05-12T12:37:23.924Z,15.50
2019-05-12T12:39:50.151Z,15.51
2019-05-12T12:42:19.700Z,15.49
2019-05-12T12:44:53.517Z,15.50
2019-05-12T12:47:20.423Z,15.53
2019-05-12T12:49:49.941Z,15.53
2019-05-12T12:52:19.433Z,15.52
2019-05-12T12:54:48.936Z,15.52
2019-05-12T12:57:19.188Z,15.53
2019-05-12T12:59:51.238Z,15.51
2019-05-12T13:02:20.113Z,15.54
2019-05-12T13:04:50.457Z,15.54
2019-05-12T13:07:20.038Z,15.58
2019-05-12T13:09:54.918Z,15.57
2019-05-12T13:12:20.719Z,15.56
2019-05-12T13:14:50.225Z,15.59
2019-05-12T13:17:19.695Z,15.60
2019-05-12T13:19:54.725Z,15.63
2019-05-12T13:22:20.353Z,15.65
2019-05-12T13:24:49.816Z,15.68
2019-05-12T13:27:24.376Z,15.68
2019-05-12T13:29:50.500Z,15.65
2019-05-12T13:32:25.947Z,15.68
2019-05-12T13:34:52.026Z,15.72
2019-05-12T13:37:23.194Z,15.71
2019-05-12T13:39:58.490Z,15.71
2019-05-12T13:42:24.225Z,15.70
2019-05-12T13:44:53.734Z,15.68
2019-05-12T13:47:23.231Z,15.69
2019-05-12T13:49:54.454Z,15.70
2019-05-12T13:52:26.310Z,15.70
2019-05-12T13:54:55.211Z,15.68
2019-05-12T13:57:24.705Z,15.67
2019-05-12T14:00:05.622Z,15.69
2019-05-12T14:02:25.442Z,15.68
2019-05-12T14:04:55.000Z,15.67
2019-05-12T14:07:24.480Z,15.64
2019-05-12T14:09:53.959Z,15.64
2019-05-12T14:12:23.431Z,15.65
2019-05-12T14:14:52.908Z,15.63
2019-05-12T14:17:23.495Z,15.62
2019-05-12T14:19:53.369Z,15.65
2019-05-12T14:22:26.408Z,15.62
2019-05-12T14:24:54.237Z,15.62
2019-05-12T14:27:27.126Z,15.62
2019-05-12T14:29:55.024Z,15.62
2019-05-12T14:32:24.529Z,15.62
2019-05-12T14:34:58.722Z,15.66
2019-05-12T14:37:25.241Z,15.64
2019-05-12T14:39:54.706Z,15.62
2019-05-12T14:42:26.154Z,15.66
2019-05-12T14:44:55.370Z,15.64
2019-05-12T14:47:29.948Z,15.61
2019-05-12T14:49:56.050Z,15.63
2019-05-12T14:52:25.508Z,15.68
2019-05-12T14:54:55.005Z,15.70
2019-05-12T14:57:24.509Z,15.68
2019-05-12T14:59:55.646Z,15.68
2019-05-12T15:02:28.198Z,15.67
2019-05-12T15:05:00.306Z,15.61
2019-05-12T15:07:27.722Z,15.64
2019-05-12T15:10:02.417Z,15.63
2019-05-12T15:12:28.451Z,15.61
2019-05-12T15:14:58.036Z,15.63
2019-05-12T15:17:27.539Z,15.59
2019-05-12T15:20:00.301Z,15.59
2019-05-12T15:22:28.203Z,15.58
2019-05-12T15:24:59.040Z,15.63
2019-05-12T15:27:42.074Z,15.61
2019-05-12T15:30:00.014Z,15.59
2019-05-12T15:32:29.862Z,15.61
2019-05-12T15:34:59.490Z,15.57
2019-05-12T15:37:34.143Z,15.55
2019-05-12T15:40:00.233Z,15.53
2019-05-12T15:42:29.716Z,15.55
2019-05-12T15:44:59.178Z,15.56
2019-05-12T15:47:30.051Z,15.58
2019-05-12T15:49:59.703Z,15.58
2019-05-12T15:52:34.646Z,15.61
2019-05-12T15:55:00.460Z,15.61
2019-05-12T15:57:29.968Z,15.65
2019-05-12T15:59:59.518Z,15.67
2019-05-12T16:02:28.995Z,15.69
2019-05-12T16:04:58.486Z,15.72
2019-05-12T16:07:29.697Z,15.73
2019-05-12T16:09:59.142Z,15.73
2019-05-12T16:12:28.621Z,15.75
2019-05-12T16:14:58.090Z,15.72
2019-05-12T16:17:27.604Z,15.72
2019-05-12T16:19:57.068Z,15.67
2019-05-12T16:22:30.558Z,15.66
2019-05-12T16:24:58.111Z,15.64
2019-05-12T16:27:35.530Z,15.63
2019-05-12T16:29:58.758Z,15.62
2019-05-12T16:32:39.639Z,15.61
2019-05-12T16:34:59.419Z,15.60
2019-05-12T16:37:31.095Z,15.62
2019-05-12T16:40:00.418Z,15.60
2019-05-12T16:42:29.944Z,15.60
2019-05-12T16:45:06.024Z,15.58
2019-05-12T16:47:33.145Z,15.58
2019-05-12T16:50:08.511Z,15.57
2019-05-12T16:52:40.491Z,15.57
2019-05-12T16:55:04.604Z,15.57
2019-05-12T16:57:34.086Z,15.51
2019-05-12T17:00:06.987Z,15.44
2019-05-12T17:02:41.287Z,15.42
2019-05-12T17:05:18.228Z,15.38
2019-05-12T17:07:37.964Z,15.34
2019-05-12T17:10:11.871Z,15.30
2019-05-12T17:12:38.899Z,15.27
2019-05-12T17:15:08.536Z,15.26
2019-05-12T17:17:38.049Z,15.22
2019-05-12T17:20:07.829Z,15.20
2019-05-12T17:22:37.380Z,15.19
2019-05-12T17:25:10.396Z,15.15
2019-05-12T17:27:38.929Z,15.09
2019-05-12T17:30:08.869Z,15.09
2019-05-12T17:32:38.437Z,15.05
2019-05-12T17:35:10.105Z,14.98
2019-05-12T17:37:41.335Z,14.89
2019-05-12T17:40:15.513Z,14.83
2019-05-12T17:42:44.325Z,14.80
2019-05-12T17:45:20.327Z,14.74
2019-05-12T17:47:45.037Z,14.73
2019-05-12T17:50:14.632Z,14.67
2019-05-12T17:52:44.801Z,14.65
2019-05-12T17:55:15.050Z,14.67
2019-05-12T17:57:44.561Z,14.69
2019-05-12T18:00:15.477Z,14.71
2019-05-12T18:02:49.298Z,14.63
2019-05-12T18:05:16.345Z,14.64
2019-05-12T18:07:51.085Z,14.62
2019-05-12T18:10:17.359Z,14.60
2019-05-12T18:12:46.803Z,14.56
2019-05-12T18:15:25.711Z,14.56
2019-05-12T18:17:49.968Z,14.55
2019-05-12T18:20:19.867Z,14.56
2019-05-12T18:22:49.377Z,14.51
2019-05-12T18:25:22.050Z,14.55
2019-05-12T18:27:51.042Z,14.53
2019-05-12T18:30:20.653Z,14.54
2019-05-12T18:32:55.082Z,14.51
2019-05-12T18:35:21.346Z,14.50
2019-05-12T18:37:50.901Z,14.46
2019-05-12T18:40:20.425Z,14.45
2019-05-12T18:42:49.900Z,14.37
2019-05-12T18:45:19.476Z,14.29
2019-05-12T18:47:48.936Z,14.23
2019-05-12T18:50:20.647Z,14.29
2019-05-12T18:52:49.706Z,14.21
2019-05-12T18:55:19.270Z,14.23
2019-05-12T18:57:50.058Z,14.25
2019-05-12T19:00:22.312Z,14.20
2019-05-12T19:02:53.841Z,14.25
2019-05-12T19:05:30.222Z,14.32
2019-05-12T19:07:54.451Z,14.35
2019-05-12T19:10:24.219Z,14.33
2019-05-12T19:13:01.020Z,14.27
2019-05-12T19:15:25.030Z,14.27
2019-05-12T19:17:54.492Z,14.26
2019-05-12T19:20:24.296Z,14.12
2019-05-12T19:22:59.322Z,14.17
2019-05-12T19:25:25.078Z,14.17
2019-05-12T19:28:02.244Z,14.18
2019-05-12T19:30:27.116Z,14.16
2019-05-12T19:33:00.022Z,14.17
2019-05-12T19:35:28.086Z,14.14
2019-05-12T19:37:57.608Z,14.14
2019-05-12T19:40:27.102Z,14.03
2019-05-12T19:43:06.159Z,13.89
2019-05-12T19:45:27.831Z,13.88
2019-05-12T19:47:57.391Z,13.78
2019-05-12T19:50:27.026Z,13.79
2019-05-12T19:52:56.600Z,13.75
2019-05-12T19:55:26.337Z,13.71
2019-05-12T19:57:55.905Z,13.71
2019-05-12T20:00:25.492Z,13.75
2019-05-12T20:02:54.966Z,13.75
2019-05-12T20:05:24.604Z,13.74
2019-05-12T20:07:54.093Z,13.73
2019-05-12T20:10:24.323Z,13.64
2019-05-12T20:12:55.029Z,13.53
2019-05-12T20:15:25.244Z,13.54
2019-05-12T20:17:54.726Z,13.57
2019-05-12T20:20:28.915Z,13.56
2019-05-12T20:22:55.497Z,13.60
2019-05-12T20:25:25.024Z,13.58
2019-05-12T20:27:55.777Z,13.64
2019-05-12T20:30:28.064Z,13.62
2019-05-12T20:32:56.981Z,13.59
2019-05-12T20:35:26.532Z,13.58
2019-05-12T20:37:57.505Z,13.57
2019-05-12T20:40:27.056Z,13.55
2019-05-12T20:43:08.019Z,13.49
2019-05-12T20:45:35.274Z,13.51
2019-05-12T20:47:58.980Z,13.48
2019-05-12T20:50:32.685Z,13.44
2019-05-12T20:52:59.733Z,13.49
2019-05-12T20:55:30.166Z,13.44
2019-05-12T20:58:00.441Z,13.45
2019-05-12T21:00:29.942Z,13.43
2019-05-12T21:02:59.524Z,13.43
2019-05-12T21:05:29.054Z,13.42
2019-05-12T21:08:03.794Z,13.36
2019-05-12T21:10:29.919Z,13.33
2019-05-12T21:12:59.400Z,13.35
2019-05-12T21:15:37.294Z,13.35
2019-05-12T21:18:06.647Z,13.28
2019-05-12T21:20:33.351Z,13.32
2019-05-12T21:23:02.546Z,13.27
2019-05-12T21:25:33.935Z,13.23
2019-05-12T21:28:07.642Z,13.27
2019-05-12T21:30:34.630Z,13.25
2019-05-12T21:33:04.973Z,13.25
2019-05-12T21:35:40.623Z,13.24
2019-05-12T21:38:05.843Z,13.05
2019-05-12T21:40:35.452Z,12.92
2019-05-12T21:43:05.014Z,12.81
2019-05-12T21:45:34.574Z,12.83
2019-05-12T21:48:04.111Z,12.83
2019-05-12T21:50:38.062Z,12.83
2019-05-12T21:53:10.175Z,12.83
2019-05-12T21:55:36.403Z,12.78
2019-05-12T21:58:10.580Z,12.71
2019-05-12T22:00:40.664Z,12.65
2019-05-12T22:03:13.034Z,12.68
2019-05-12T22:05:54.677Z,12.62
2019-05-12T22:08:20.829Z,12.59
2019-05-12T22:10:45.484Z,12.71
2019-05-12T22:13:17.959Z,12.76
2019-05-12T22:15:51.371Z,12.63
2019-05-12T22:18:17.486Z,12.90
2019-05-12T22:20:52.293Z,12.94
2019-05-12T22:23:18.273Z,12.82
2019-05-12T22:25:49.000Z,12.86
2019-05-12T22:28:19.027Z,12.82
2019-05-12T22:30:48.525Z,12.83
2019-05-12T22:33:18.045Z,12.82
2019-05-12T22:36:01.535Z,12.79
2019-05-12T22:38:21.001Z,12.82
2019-05-12T22:40:56.216Z,12.83
2019-05-12T22:43:23.185Z,12.81
2019-05-12T22:45:54.493Z,12.84
2019-05-12T22:48:23.488Z,12.90
2019-05-12T22:50:54.933Z,12.78
2019-05-12T22:53:29.821Z,12.72
2019-05-12T22:55:55.500Z,12.73
2019-05-12T22:58:25.584Z,12.76
2019-05-12T23:01:00.801Z,12.83
2019-05-12T23:03:26.402Z,12.76
2019-05-12T23:05:59.584Z,12.62
2019-05-12T23:08:27.075Z,12.66
2019-05-12T23:10:56.589Z,12.74
2019-05-12T23:13:26.066Z,12.83
2019-05-12T23:15:55.669Z,12.82
2019-05-12T23:18:30.568Z,12.80
2019-05-12T23:20:58.071Z,12.67
2019-05-12T23:23:27.622Z,12.58
2019-05-12T23:26:00.607Z,12.61
2019-05-12T23:28:28.385Z,12.54
2019-05-12T23:30:57.937Z,12.62
2019-05-12T23:33:31.791Z,12.57
2019-05-12T23:35:58.609Z,12.49
2019-05-12T23:38:28.075Z,12.43
2019-05-12T23:40:57.566Z,12.57
2019-05-12T23:43:27.059Z,12.60
2019-05-12T23:45:56.689Z,12.60
2019-05-12T23:48:26.186Z,12.62
2019-05-12T23:50:55.723Z,12.66
2019-05-12T23:53:25.207Z,12.56
2019-05-12T23:55:54.711Z,12.63
2019-05-12T23:58:24.289Z,12.64
